Time;durP1;ratioP1;P1;durP2;ratioP2;P2;SDS_P1;SDS_P2;PMS_P1;PMS_P2;Temp;Humidity;BMP_temperature;BMP_pressure;BME280_temperature;BME280_humidity;BME280_pressure;Samples;Min_cycle;Max_cycle;Signal;HPM_P1;HPM_P2
2024/03/15 06:07:14;;;;;;;2.05;1.70;;;8.40;95.60;;;;;;2416789;23;20510;-90
2024/03/15 06:09:41;;;;;;;3.80;1.80;;;8.50;95.20;;;;;;4899353;29;20234;-89
2024/03/15 06:12:08;;;;;;;2.05;1.60;;;8.60;94.60;;;;;;4883241;29;20212;-91
2024/03/15 06:14:35;;;;;;;2.65;1.60;;;8.70;94.70;;;;;;4884393;29;20278;-91
2024/03/15 07:10:17;;;;;;;2.30;1.50;;;12.20;56.40;;;;;;4894636;29;20225;-89
2024/03/15 07:12:46;;;;;;;3.42;1.23;;;12.30;53.20;;;;;;4913000;29;20233;-91
2024/03/15 07:15:15;;;;;;;2.83;1.60;;;12.40;52.50;;;;;;4911464;29;20215;-88
2024/03/15 07:17:43;;;;;;;1.30;1.20;;;12.50;52.00;;;;;;4901322;29;20254;-88
2024/03/15 07:20:12;;;;;;;3.15;1.40;;;12.60;49.20;;;;;;4902486;29;20235;-90
2024/03/15 07:23:11;;;;;;;3.03;1.23;;;12.70;49.20;;;;;;4913407;29;20613;-89
2024/03/15 07:25:38;;;;;;;1.92;1.30;;;12.70;49.20;;;;;;4918557;29;20689;-88
2024/03/15 07:28:07;;;;;;;5.00;1.33;;;12.70;49.20;;;;;;4902061;29;20649;-90
2024/03/15 07:30:35;;;;;;;3.53;1.52;;;12.90;47.20;;;;;;4900605;29;20230;-85
2024/03/15 07:33:02;;;;;;;3.92;1.80;;;12.80;47.30;;;;;;4900835;29;20679;-87
2024/03/15 07:35:31;;;;;;;1.80;1.63;;;12.80;47.50;;;;;;4901139;29;20657;-87
2024/03/15 07:37:58;;;;;;;2.25;1.52;;;13.00;47.30;;;;;;4885729;29;20214;-89
2024/03/15 07:40:25;;;;;;;1.98;1.55;;;13.30;49.80;;;;;;4901072;29;20630;-88
2024/03/15 07:46:37;;;;;;;4.40;1.40;;;13.80;39.20;;;;;;4917191;29;20589;-87
2024/03/15 07:52:26;;;;;;;1.58;1.30;;;14.40;34.10;;;;;;4917769;29;20619;-86
2024/03/15 07:54:53;;;;;;;2.00;1.30;;;14.40;34.50;;;;;;4901544;29;20217;-85
2024/03/15 07:57:23;;;;;;;2.25;1.50;;;14.40;35.00;;;;;;4888303;29;20222;-86
2024/03/15 07:59:53;;;;;;;1.40;1.30;;;14.40;34.20;;;;;;4885428;29;20221;-83
2024/03/15 08:02:19;;;;;;;3.60;1.45;;;14.40;34.20;;;;;;4889294;29;20195;-84
2024/03/15 08:04:50;;;;;;;3.22;1.38;;;14.60;34.50;;;;;;4890280;29;20208;-85
2024/03/15 08:07:18;;;;;;;1.90;1.35;;;14.90;33.20;;;;;;4888655;29;20584;-85
2024/03/15 08:09:45;;;;;;;1.42;1.33;;;15.00;32.90;;;;;;4903522;29;20234;-84
2024/03/15 08:12:14;;;;;;;1.98;1.40;;;15.20;32.50;;;;;;4915085;29;20214;-84
2024/03/15 08:14:42;;;;;;;1.98;1.23;;;15.40;28.80;;;;;;4883943;29;20208;-84
2024/03/15 08:17:09;;;;;;;2.15;1.35;;;15.50;30.00;;;;;;4889462;29;20242;-84
2024/03/15 08:19:38;;;;;;;2.83;1.20;;;15.60;28.30;;;;;;4920681;29;20206;-84
2024/03/15 08:22:05;;;;;;;2.75;1.20;;;15.60;29.40;;;;;;4920075;29;20195;-85
2024/03/15 08:38:37;;;;;;;2.22;1.40;;;16.00;26.60;;;;;;4920481;29;20589;-86
2024/03/15 08:45:20;;;;;;;1.63;1.38;;;15.90;28.10;;;;;;4920616;29;20652;-85
2024/03/15 08:51:13;;;;;;;4.13;1.50;;;16.00;28.60;;;;;;4920272;29;20210;-84
2024/03/15 08:59:40;;;;;;;4.15;1.48;;;15.90;26.90;;;;;;5157128;23;20713;-84
2024/03/15 09:02:07;;;;;;;3.97;1.60;;;15.90;28.60;;;;;;4884586;29;20689;-85
2024/03/15 09:04:35;;;;;;;1.92;1.70;;;16.10;28.80;;;;;;4893726;29;20211;-85
2024/03/15 09:07:03;;;;;;;2.67;1.58;;;16.30;26.90;;;;;;4884984;29;20203;-85
2024/03/15 09:09:33;;;;;;;3.05;1.80;;;16.60;24.80;;;;;;4882827;29;20222;-89
2024/03/15 09:12:00;;;;;;;3.15;1.58;;;16.70;24.90;;;;;;4883860;29;20739;-86
2024/03/15 09:14:29;;;;;;;2.83;1.50;;;16.60;25.70;;;;;;4899500;29;20207;-84
2024/03/15 09:16:56;;;;;;;2.17;1.50;;;16.50;24.50;;;;;;4882192;29;20195;-84
2024/03/15 09:19:23;;;;;;;3.10;1.70;;;16.40;25.70;;;;;;4866617;29;20623;-86
2024/03/15 09:21:50;;;;;;;3.58;1.70;;;16.50;27.70;;;;;;4882160;29;20212;-84
2024/03/15 09:24:17;;;;;;;5.28;1.70;;;16.40;26.30;;;;;;4900877;29;20191;-84
2024/03/15 09:30:17;;;;;;;3.78;1.88;;;16.50;26.00;;;;;;4904488;29;20278;-84
2024/03/15 09:32:44;;;;;;;5.63;1.80;;;16.20;27.20;;;;;;4853186;29;20199;-87
2024/03/15 09:35:13;;;;;;;3.33;1.77;;;16.00;28.70;;;;;;4869717;29;20200;-85
2024/03/15 09:37:46;;;;;;;5.47;2.15;;;15.80;28.50;;;;;;4871736;29;20541;-85
2024/03/15 09:40:16;;;;;;;2.83;1.75;;;15.50;28.30;;;;;;4851806;29;20583;-85
2024/03/15 09:42:43;;;;;;;5.30;1.95;;;15.40;30.40;;;;;;4884460;29;20211;-86
2024/03/15 09:45:13;;;;;;;4.65;1.80;;;15.20;31.70;;;;;;4853904;29;20215;-88
2024/03/15 09:54:33;;;;;;;2.42;1.80;;;14.70;34.80;;;;;;4901038;29;20560;-89
2024/03/15 10:03:01;;;;;;;4.43;1.70;;;14.30;45.00;;;;;;4934260;29;20205;-88
2024/03/15 10:26:48;;;;;;;1.98;1.77;;;14.20;66.20;;;;;;4918856;29;20187;-86
2024/03/15 10:46:22;;;;;;;2.30;1.80;;;14.90;71.70;;;;;;4919119;29;20551;-84
2024/03/15 10:48:49;;;;;;;3.95;2.08;;;15.20;70.30;;;;;;4885999;29;20253;-88
2024/03/15 10:51:16;;;;;;;2.38;1.80;;;15.40;69.80;;;;;;4886882;29;20219;-88
2024/03/15 12:18:21;;;;;;;3.00;2.00;;;17.90;33.50;;;;;;4919135;29;20276;-87
2024/03/15 12:20:49;;;;;;;3.40;2.08;;;18.10;32.90;;;;;;4893329;29;20225;-84
2024/03/15 12:23:17;;;;;;;3.30;2.40;;;18.30;31.00;;;;;;4885537;29;20235;-83
2024/03/15 12:25:45;;;;;;;4.50;2.70;;;18.30;32.20;;;;;;4890941;29;20210;-84
2024/03/15 12:28:12;;;;;;;3.00;2.15;;;18.40;30.70;;;;;;4907628;29;20207;-83
2024/03/15 12:30:40;;;;;;;3.90;2.97;;;18.30;29.60;;;;;;4914540;29;20230;-85
2024/03/15 12:33:07;;;;;;;3.22;2.25;;;18.20;29.60;;;;;;4914878;29;20677;-86
2024/03/15 12:35:34;;;;;;;2.65;1.92;;;18.00;30.40;;;;;;4877765;29;20278;-86
2024/03/15 12:38:02;;;;;;;7.22;2.40;;;17.80;28.00;;;;;;4902941;29;20217;-84
2024/03/15 12:40:29;;;;;;;5.70;2.20;;;17.80;28.00;;;;;;4896016;29;20293;-87
2024/03/15 12:42:56;;;;;;;3.25;2.28;;;17.70;27.20;;;;;;4919209;29;21132;-85
2024/03/15 12:45:23;;;;;;;2.45;2.03;;;17.60;27.60;;;;;;4891043;29;20199;-85
2024/03/15 12:47:50;;;;;;;3.08;2.22;;;17.60;27.00;;;;;;4911981;29;20199;-86
2024/03/15 12:50:17;;;;;;;3.38;2.10;;;17.70;27.80;;;;;;4894896;29;20238;-88
2024/03/15 12:52:45;;;;;;;2.72;2.00;;;17.90;27.10;;;;;;4885734;29;20713;-87
2024/03/15 12:55:12;;;;;;;5.38;1.90;;;17.80;27.60;;;;;;4902510;29;20212;-86
2024/03/15 13:06:14;;;;;;;3.97;2.10;;;16.90;28.60;;;;;;4901647;29;20282;-85
2024/03/15 13:12:08;;;;;;;2.72;1.92;;;17.40;28.60;;;;;;4901126;29;20277;-84
2024/03/15 13:14:35;;;;;;;2.60;2.00;;;17.60;26.10;;;;;;4899966;29;20203;-84
2024/03/15 13:17:03;;;;;;;3.83;2.10;;;17.80;25.30;;;;;;4893562;29;20199;-84
2024/03/15 13:19:30;;;;;;;2.22;2.03;;;17.60;25.60;;;;;;4898196;29;20215;-89
2024/03/15 13:21:57;;;;;;;3.10;1.92;;;17.60;25.40;;;;;;4881535;29;20213;-85
2024/03/15 13:25:03;;;;;;;2.92;1.88;;;17.70;25.90;;;;;;4884915;29;20199;-85
2024/03/15 13:27:30;;;;;;;4.00;2.13;;;18.00;24.30;;;;;;4900940;29;20638;-85
2024/03/15 13:29:58;;;;;;;4.65;2.00;;;18.20;24.60;;;;;;4884704;29;20202;-86
2024/03/15 13:36:43;;;;;;;3.42;1.85;;;18.00;22.50;;;;;;4900772;29;20187;-85
2024/03/15 13:39:36;;;;;;;3.70;2.13;;;17.70;22.80;;;;;;4887008;29;20657;-84
2024/03/15 13:42:03;;;;;;;2.75;2.10;;;17.30;24.80;;;;;;4880524;29;20595;-84
2024/03/15 13:44:30;;;;;;;2.67;2.13;;;17.10;24.00;;;;;;4900916;29;20286;-88
2024/03/15 13:46:58;;;;;;;4.25;3.83;;;17.00;25.70;;;;;;4861974;29;20210;-85
2024/03/15 13:49:25;;;;;;;5.60;2.55;;;17.10;24.50;;;;;;4892144;29;20196;-89
2024/03/15 13:51:52;;;;;;;3.40;1.80;;;17.40;24.00;;;;;;4893645;29;20250;-83
2024/03/15 13:54:19;;;;;;;3.65;2.10;;;17.40;22.00;;;;;;4890064;29;20613;-84
2024/03/15 13:56:47;;;;;;;3.65;2.63;;;17.30;22.30;;;;;;4862060;29;20223;-85
2024/03/15 13:59:14;;;;;;;6.18;2.28;;;17.50;22.20;;;;;;4877267;29;20212;-87
2024/03/15 14:01:45;;;;;;;3.03;2.20;;;17.60;23.00;;;;;;4887192;29;21608;-86
2024/03/15 14:04:12;;;;;;;2.55;1.85;;;17.80;22.20;;;;;;4866482;29;20204;-87
2024/03/15 14:06:41;;;;;;;4.35;2.10;;;17.80;21.10;;;;;;4843020;29;20212;-87
2024/03/15 14:09:08;;;;;;;2.65;2.10;;;17.80;19.90;;;;;;4850197;29;20228;-85
2024/03/15 14:11:35;;;;;;;2.45;1.70;;;17.70;20.00;;;;;;4873619;29;20250;-88
2024/03/15 14:14:01;;;;;;;3.60;2.08;;;17.60;20.40;;;;;;4858935;29;20204;-86
2024/03/15 14:16:28;;;;;;;3.22;1.90;;;17.50;21.30;;;;;;4859264;29;20211;-89
2024/03/15 14:18:55;;;;;;;2.90;1.70;;;17.40;21.70;;;;;;4862234;29;20204;-84
2024/03/15 14:21:22;;;;;;;3.38;1.90;;;17.40;21.00;;;;;;4868199;29;20207;-88
2024/03/15 14:23:50;;;;;;;4.95;2.20;;;17.30;21.40;;;;;;4857029;29;20212;-85
2024/03/15 14:26:16;;;;;;;8.18;2.25;;;17.10;22.20;;;;;;4863893;29;20342;-85
2024/03/15 14:28:43;;;;;;;3.38;1.83;;;16.90;22.30;;;;;;4861675;29;20208;-83
2024/03/15 14:31:10;;;;;;;4.38;1.80;;;16.90;22.00;;;;;;4843255;29;20220;-86
2024/03/15 14:33:37;;;;;;;3.55;1.52;;;17.10;22.70;;;;;;4843005;29;20235;-84
2024/03/15 14:36:04;;;;;;;1.98;1.50;;;17.10;23.00;;;;;;4887580;29;20560;-83
2024/03/15 14:38:31;;;;;;;2.63;1.60;;;17.10;23.40;;;;;;4858237;29;20212;-85
2024/03/15 14:40:58;;;;;;;2.55;1.90;;;17.10;22.60;;;;;;4891787;29;20207;-87
2024/03/15 14:43:25;;;;;;;3.70;1.85;;;17.20;24.10;;;;;;4835490;29;20580;-84
2024/03/15 14:45:52;;;;;;;2.83;1.90;;;17.30;24.00;;;;;;4862850;29;20214;-86
2024/03/15 14:48:19;;;;;;;2.17;1.75;;;17.30;24.80;;;;;;4889528;29;20204;-85
2024/03/15 14:50:50;;;;;;;2.28;1.70;;;17.20;24.50;;;;;;4879013;29;20235;-84
2024/03/15 14:53:20;;;;;;;3.05;1.98;;;17.10;25.30;;;;;;4861316;29;20290;-86
2024/03/15 14:55:47;;;;;;;3.00;2.17;;;17.00;25.30;;;;;;4875247;29;20208;-85
2024/03/15 14:58:17;;;;;;;5.18;1.92;;;16.90;24.90;;;;;;4968705;23;20230;-84
2024/03/15 15:00:47;;;;;;;4.78;1.90;;;16.80;25.40;;;;;;4870262;29;20665;-85
2024/03/15 15:03:14;;;;;;;2.60;1.70;;;16.80;27.20;;;;;;4881396;29;20725;-84
2024/03/15 15:05:41;;;;;;;2.70;1.90;;;16.70;27.50;;;;;;4883816;29;20210;-84
2024/03/15 15:08:10;;;;;;;2.85;1.80;;;16.60;28.00;;;;;;4885125;29;20654;-83
2024/03/15 15:10:37;;;;;;;5.88;2.40;;;16.60;27.00;;;;;;4881609;29;20701;-84
2024/03/15 15:13:05;;;;;;;4.20;1.60;;;16.60;27.70;;;;;;4898374;29;20188;-83
2024/03/15 15:15:45;;;;;;;2.42;1.63;;;16.60;27.70;;;;;;4882451;29;20199;-83
2024/03/15 15:25:20;;;;;;;2.03;1.52;;;16.40;29.00;;;;;;4898854;29;20215;-87
2024/03/15 15:38:19;;;;;;;3.88;1.90;;;16.00;28.70;;;;;;4898997;29;20183;-85
2024/03/15 15:40:46;;;;;;;2.83;1.88;;;16.00;28.70;;;;;;4897764;29;20218;-87
2024/03/15 15:43:14;;;;;;;2.78;1.90;;;15.90;28.60;;;;;;4866446;29;20203;-85
2024/03/15 15:45:57;;;;;;;3.88;1.77;;;15.90;29.50;;;;;;4929740;29;20202;-85
2024/03/15 15:51:55;;;;;;;4.22;1.92;;;15.80;31.50;;;;;;4898480;29;20226;-86
2024/03/15 15:54:35;;;;;;;1.85;1.70;;;15.60;37.10;;;;;;4882056;29;20584;-85
2024/03/15 15:57:29;;;;;;;3.30;2.13;;;15.40;44.30;;;;;;4882157;29;20231;-86
2024/03/15 15:59:56;;;;;;;3.65;2.20;;;15.10;51.50;;;;;;4897426;29;20686;-86
2024/03/15 16:02:27;;;;;;;3.35;2.17;;;14.80;56.10;;;;;;4866198;29;20199;-85
2024/03/15 16:04:54;;;;;;;3.53;2.28;;;14.40;64.00;;;;;;4901576;29;20211;-87
2024/03/15 16:07:23;;;;;;;4.07;2.55;;;14.40;69.10;;;;;;4879109;29;20204;-88
2024/03/15 16:09:50;;;;;;;4.95;2.60;;;14.50;76.90;;;;;;4849424;29;20193;-86
2024/03/15 16:19:10;;;;;;;2.63;2.08;;;14.90;68.10;;;;;;4879687;29;20192;-88
2024/03/15 16:21:37;;;;;;;3.08;2.20;;;14.80;68.00;;;;;;4864732;29;20208;-87
2024/03/15 16:52:18;;;;;;;6.28;4.20;;;14.40;45.00;;;;;;4882719;29;20298;-85
2024/03/15 18:23:22;;;;;;;6.97;4.50;;;12.30;89.70;;;;;;4919074;29;20209;-85
2024/03/15 18:26:45;;;;;;;8.10;4.57;;;12.10;90.80;;;;;;4902279;29;20191;-88
2024/03/15 18:43:12;;;;;;;9.38;5.32;;;11.70;92.10;;;;;;4923336;29;20187;-89
2024/03/15 18:45:39;;;;;;;7.93;5.07;;;11.70;91.90;;;;;;4913877;29;20210;-87
2024/03/15 18:48:05;;;;;;;12.05;6.63;;;11.80;91.90;;;;;;4900603;29;20205;-86
2024/03/15 18:50:33;;;;;;;11.85;6.35;;;11.60;92.00;;;;;;4897299;29;20654;-86
2024/03/15 18:53:06;;;;;;;9.93;7.15;;;11.50;92.60;;;;;;4890846;29;20219;-86
2024/03/15 18:55:33;;;;;;;11.90;7.40;;;11.40;93.40;;;;;;4896036;29;20627;-86
2024/03/15 19:14:00;;;;;;;7.38;5.68;;;10.80;96.60;;;;;;5753547;23;20230;-86
2024/03/15 19:16:27;;;;;;;9.35;5.25;;;10.70;97.00;;;;;;4881556;29;20279;-84
2024/03/15 19:18:54;;;;;;;6.82;5.05;;;10.60;97.40;;;;;;4901760;29;20233;-86
2024/03/15 19:21:21;;;;;;;9.15;5.43;;;10.50;97.70;;;;;;4908564;29;20202;-84
2024/03/15 19:23:48;;;;;;;7.10;5.07;;;10.50;98.00;;;;;;4912829;29;20211;-86
2024/03/15 19:26:16;;;;;;;7.07;5.00;;;10.50;98.50;;;;;;4867446;29;20191;-86
2024/03/15 19:28:43;;;;;;;12.32;5.22;;;10.40;98.70;;;;;;4884412;29;20209;-85
2024/03/15 19:34:59;;;;;;;11.93;5.43;;;10.40;99.30;;;;;;4918262;29;20205;-85
2024/03/15 19:37:49;;;;;;;8.00;4.70;;;10.40;99.10;;;;;;4901599;29;20242;-85
2024/03/15 19:40:16;;;;;;;10.65;6.25;;;10.40;99.10;;;;;;4900527;29;20203;-84
2024/03/15 19:42:43;;;;;;;9.75;5.97;;;10.40;99.10;;;;;;4900887;29;20234;-84
2024/03/15 19:45:10;;;;;;;7.65;5.22;;;10.40;98.90;;;;;;4889024;29;20251;-84
2024/03/15 19:54:34;;;;;;;9.35;5.45;;;10.30;98.20;;;;;;4917968;29;20616;-84
2024/03/15 20:02:59;;;;;;;7.95;4.15;;;10.30;97.60;;;;;;4921344;29;20206;-84
2024/03/15 20:05:55;;;;;;;6.90;4.60;;;10.30;97.00;;;;;;4905525;29;20205;-84
2024/03/15 20:11:44;;;;;;;8.25;4.57;;;10.30;96.80;;;;;;4920868;29;20229;-89
2024/03/15 20:14:11;;;;;;;5.93;4.10;;;10.20;96.70;;;;;;4888886;29;20741;-84
2024/03/15 20:16:38;;;;;;;7.05;5.25;;;10.30;96.60;;;;;;4888871;29;20195;-84
2024/03/15 20:19:08;;;;;;;7.43;4.55;;;10.30;96.30;;;;;;4904866;29;20542;-88
2024/03/15 20:31:59;;;;;;;7.38;4.72;;;10.50;95.80;;;;;;4921218;29;20214;-87
2024/03/15 20:51:33;;;;;;;4.95;3.40;;;10.40;94.90;;;;;;4932063;29;20222;-84
2024/03/15 21:00:44;;;;;;;4.78;3.67;;;10.30;95.00;;;;;;4911561;29;20230;-84
2024/03/15 21:03:12;;;;;;;6.22;3.17;;;10.40;94.60;;;;;;4903387;29;20210;-83
2024/03/15 21:05:42;;;;;;;5.95;3.63;;;10.50;94.20;;;;;;4910718;29;20298;-83
2024/03/15 21:08:09;;;;;;;6.82;3.80;;;10.40;94.10;;;;;;4889983;29;20232;-84
2024/03/15 21:10:35;;;;;;;6.40;3.58;;;10.40;94.30;;;;;;4903144;29;20206;-84
2024/03/15 21:13:03;;;;;;;5.00;3.60;;;10.30;94.30;;;;;;4903238;29;20271;-84
2024/03/15 21:19:08;;;;;;;5.47;3.53;;;10.30;94.20;;;;;;4920058;29;20606;-84
2024/03/15 21:21:36;;;;;;;5.82;3.45;;;10.20;94.50;;;;;;4898503;29;20202;-84
2024/03/15 21:24:05;;;;;;;7.38;3.78;;;10.20;94.50;;;;;;4903370;29;20187;-84
2024/03/15 21:26:39;;;;;;;4.55;2.85;;;10.20;94.50;;;;;;4903155;29;20226;-83
2024/03/15 21:33:15;;;;;;;5.30;3.03;;;10.40;93.70;;;;;;4900610;29;20708;-83
2024/03/15 21:42:58;;;;;;;4.55;2.63;;;10.70;91.50;;;;;;4899708;29;20183;-83
2024/03/15 21:48:47;;;;;;;7.80;2.92;;;10.90;90.50;;;;;;4900314;29;20299;-83
2024/03/15 21:54:47;;;;;;;4.22;2.40;;;10.80;90.50;;;;;;4900346;29;20260;-83
2024/03/15 22:24:11;;;;;;;4.75;2.15;;;10.90;88.60;;;;;;4891047;29;20234;-83
2024/03/15 22:26:39;;;;;;;4.13;2.20;;;10.90;88.40;;;;;;4878787;29;20214;-84
2024/03/15 22:29:08;;;;;;;6.85;2.17;;;11.00;86.30;;;;;;4871511;29;20218;-83
2024/03/15 22:31:36;;;;;;;1.90;1.60;;;11.00;85.40;;;;;;4869655;29;20226;-82
2024/03/15 22:34:04;;;;;;;2.65;1.80;;;11.00;85.50;;;;;;4875100;29;20670;-83
2024/03/15 22:36:31;;;;;;;2.10;1.40;;;10.90;86.00;;;;;;4868284;29;20208;-83
2024/03/15 22:38:58;;;;;;;5.00;1.42;;;11.00;84.30;;;;;;4879423;29;20652;-83
2024/03/15 22:41:25;;;;;;;1.67;1.13;;;11.10;83.20;;;;;;4864210;29;20203;-84
2024/03/15 22:43:52;;;;;;;1.25;1.15;;;11.10;83.20;;;;;;4891530;29;20205;-83
2024/03/15 22:46:19;;;;;;;2.55;1.30;;;11.10;84.70;;;;;;4879532;29;20196;-83
2024/03/15 22:48:46;;;;;;;2.63;1.35;;;11.20;83.70;;;;;;4895829;29;20192;-82
2024/03/15 22:51:21;;;;;;;1.27;1.10;;;11.30;83.70;;;;;;4894573;29;20192;-83
2024/03/15 22:57:15;;;;;;;1.15;0.98;;;11.20;87.40;;;;;;4889873;29;20619;-82
2024/03/15 22:59:42;;;;;;;1.20;1.10;;;11.10;90.50;;;;;;4895017;29;20203;-83
2024/03/15 23:02:11;;;;;;;78.55;21.08;;;10.90;92.10;;;;;;4897671;29;20196;-82
2024/03/15 23:04:40;;;;;;;25.90;8.38;;;10.90;93.30;;;;;;4890297;29;20208;-83
2024/03/15 23:07:07;;;;;;;17.17;4.95;;;10.80;93.40;;;;;;4863981;29;20656;-82
2024/03/15 23:09:34;;;;;;;25.25;8.93;;;10.80;93.90;;;;;;4868504;29;20200;-83
2024/03/15 23:15:28;;;;;;;8.98;2.92;;;10.70;94.00;;;;;;4880023;29;20240;-83
2024/03/15 23:17:55;;;;;;;1.50;1.20;;;10.70;93.80;;;;;;4863593;29;20247;-82
2024/03/15 23:20:24;;;;;;;3.53;1.55;;;10.70;93.80;;;;;;4879602;29;20192;-83
2024/03/15 23:23:51;;;;;;;1.35;1.08;;;10.70;93.90;;;;;;4879207;29;20255;-82
2024/03/15 23:26:18;;;;;;;1.55;0.70;;;10.60;94.10;;;;;;4880808;29;20218;-82
2024/03/15 23:28:50;;;;;;;2.20;1.00;;;10.50;94.70;;;;;;4879482;29;20197;-83
2024/03/15 23:31:21;;;;;;;4.55;1.80;;;10.50;95.20;;;;;;4878927;29;20200;-83
2024/03/15 23:37:13;;;;;;;1.08;0.80;;;10.50;95.20;;;;;;4880016;29;20219;-82
2024/03/15 23:43:01;;;;;;;5.50;3.53;;;10.50;95.80;;;;;;4879635;29;20711;-83
2024/03/15 23:45:28;;;;;;;8.50;4.50;;;10.50;95.80;;;;;;4870663;29;20212;-83
2024/03/15 23:47:55;;;;;;;1.77;1.25;;;10.50;95.80;;;;;;4851068;29;20210;-84
2024/03/15 23:50:22;;;;;;;2.47;1.10;;;10.50;95.80;;;;;;4884631;29;20207;-83
2024/03/15 23:52:49;;;;;;;1.33;1.10;;;10.50;95.80;;;;;;4864727;29;20239;-84
2024/03/15 23:55:16;;;;;;;1.20;0.90;;;10.50;95.80;;;;;;4877449;29;20208;-83
2024/03/15 23:57:43;;;;;;;2.92;1.20;;;10.60;95.50;;;;;;4862709;29;20234;-83
